Time;durP1;ratioP1;P1;durP2;ratioP2;P2;SDS_P1;SDS_P2;PMS_P1;PMS_P2;Temp;Humidity;BMP_temperature;BMP_pressure;BME280_temperature;BME280_humidity;BME280_pressure;Samples;Min_cycle;Max_cycle;Signal;HPM_P1;HPM_P2
2023/07/29 00:00:12;;;;;;;3.83;2.97;;;;;;;19.67;100.00;98887.81;5084051;28;20196;-78
2023/07/29 00:02:40;;;;;;;3.45;3.15;;;;;;;19.63;100.00;98894.16;5080099;28;20224;-78
2023/07/29 00:05:07;;;;;;;3.60;3.30;;;;;;;19.55;100.00;98892.91;5086273;28;20279;-77
2023/07/29 00:07:34;;;;;;;3.50;3.20;;;;;;;19.52;100.00;98887.25;5091191;28;20228;-78
2023/07/29 00:10:00;;;;;;;2.97;2.78;;;;;;;19.47;100.00;98890.84;5075214;28;20200;-78
2023/07/29 00:12:27;;;;;;;3.10;2.90;;;;;;;19.42;100.00;98895.53;5085962;28;20204;-77
2023/07/29 00:14:54;;;;;;;3.05;2.85;;;;;;;19.38;100.00;98895.31;5082402;28;20261;-77
2023/07/29 00:17:21;;;;;;;3.15;2.90;;;;;;;19.36;100.00;98897.53;5104585;28;20194;-78
2023/07/29 00:19:48;;;;;;;3.80;3.50;;;;;;;19.33;100.00;98896.19;5098945;28;20237;-77
2023/07/29 00:22:14;;;;;;;3.60;3.30;;;;;;;19.29;100.00;98897.88;5082560;28;20202;-76
2023/07/29 00:24:41;;;;;;;3.27;2.97;;;;;;;19.18;100.00;98899.13;5091948;28;20269;-77
2023/07/29 00:27:08;;;;;;;4.33;3.17;;;;;;;19.15;100.00;98888.03;5099325;28;20244;-77
2023/07/29 00:29:34;;;;;;;3.38;3.08;;;;;;;19.13;100.00;98887.53;5081953;28;20277;-76
2023/07/29 00:32:01;;;;;;;4.23;3.27;;;;;;;19.14;100.00;98879.09;5107582;28;20206;-77
2023/07/29 00:34:28;;;;;;;3.47;3.17;;;;;;;19.09;100.00;98883.78;5082346;28;20762;-78
2023/07/29 00:36:55;;;;;;;3.40;3.10;;;;;;;19.04;100.00;98883.84;5088838;28;20215;-78
2023/07/29 00:39:22;;;;;;;3.30;3.10;;;;;;;19.01;100.00;98884.44;5104139;28;20213;-77
2023/07/29 00:41:49;;;;;;;3.43;3.13;;;;;;;18.99;100.00;98882.00;5087881;28;20198;-78
2023/07/29 00:44:16;;;;;;;4.43;3.53;;;;;;;18.97;100.00;98872.56;5078775;28;20238;-77
2023/07/29 00:46:43;;;;;;;3.73;3.27;;;;;;;18.91;100.00;98877.25;5091123;28;20551;-78
2023/07/29 00:49:10;;;;;;;3.17;2.97;;;;;;;18.82;100.00;98879.81;5048070;28;20195;-77
2023/07/29 00:51:37;;;;;;;3.50;3.20;;;;;;;18.79;100.00;98887.72;5096866;28;20207;-78
2023/07/29 00:54:03;;;;;;;3.92;3.53;;;;;;;18.77;100.00;98888.00;5100101;28;20668;-77
2023/07/29 00:56:30;;;;;;;3.30;3.00;;;;;;;18.65;100.00;98889.53;5102613;28;20538;-77
2023/07/29 00:59:01;;;;;;;3.97;3.67;;;;;;;18.47;100.00;98897.31;5080053;28;20199;-77
2023/07/29 01:01:29;;;;;;;4.00;3.57;;;;;;;18.36;100.00;98889.56;5063236;28;20627;-77
2023/07/29 01:03:56;;;;;;;4.00;3.60;;;;;;;18.27;100.00;98891.28;5094280;28;20579;-77
2023/07/29 01:06:35;;;;;;;3.80;3.50;;;;;;;18.20;100.00;98882.66;5050207;28;20238;-78
2023/07/29 01:09:05;;;;;;;3.83;3.53;;;;;;;18.15;100.00;98880.03;5057549;28;20229;-77
2023/07/29 01:11:40;;;;;;;4.60;3.83;;;;;;;18.12;100.00;98875.97;5090265;28;20190;-77
2023/07/29 01:14:23;;;;;;;3.70;3.40;;;;;;;18.09;100.00;98870.31;5084962;28;20648;-77
2023/07/29 01:16:53;;;;;;;4.10;3.70;;;;;;;18.08;100.00;98868.69;5076064;28;20644;-77
2023/07/29 01:19:37;;;;;;;3.23;3.03;;;;;;;18.09;100.00;98859.47;5092152;28;20199;-78
2023/07/29 01:22:04;;;;;;;4.07;3.70;;;;;;;18.05;100.00;98859.25;5068944;28;20199;-78
2023/07/29 01:24:30;;;;;;;3.70;3.30;;;;;;;18.01;100.00;98859.00;5089213;28;20222;-78
2023/07/29 01:26:57;;;;;;;3.77;3.47;;;;;;;18.04;100.00;98868.47;5091635;28;20539;-78
2023/07/29 01:29:24;;;;;;;3.73;3.43;;;;;;;18.04;100.00;98874.72;5090311;28;20216;-78
2023/07/29 01:31:54;;;;;;;3.67;3.37;;;;;;;18.06;100.00;98879.03;5070061;28;20657;-77
2023/07/29 01:34:30;;;;;;;4.00;3.70;;;;;;;18.02;100.00;98870.66;5072068;28;20215;-79
2023/07/29 01:37:02;;;;;;;3.87;3.23;;;;;;;18.06;100.00;98873.63;5072925;28;20722;-78
2023/07/29 01:39:29;;;;;;;3.87;3.57;;;;;;;18.07;100.00;98872.50;5080209;28;20270;-78
2023/07/29 01:41:56;;;;;;;3.93;3.63;;;;;;;18.10;100.00;98883.59;5067999;28;20228;-78
2023/07/29 01:44:23;;;;;;;3.97;3.67;;;;;;;18.13;100.00;98883.03;5090168;28;20290;-80
2023/07/29 01:46:50;;;;;;;3.73;3.43;;;;;;;18.12;100.00;98875.97;5066468;28;20201;-78
2023/07/29 01:49:16;;;;;;;3.63;3.33;;;;;;;18.14;100.00;98873.81;5091283;28;20205;-78
2023/07/29 01:51:43;;;;;;;3.90;3.50;;;;;;;18.15;100.00;98885.47;5090223;28;20189;-78
2023/07/29 01:54:10;;;;;;;4.27;3.87;;;;;;;18.20;100.00;98875.34;5086930;28;20227;-78
2023/07/29 01:56:37;;;;;;;4.00;3.70;;;;;;;18.20;100.00;98879.94;5080993;28;20203;-79
2023/07/29 01:59:04;;;;;;;4.33;3.93;;;;;;;18.19;100.00;98879.16;5060889;28;20202;-77
2023/07/29 02:01:31;;;;;;;4.80;3.90;;;;;;;18.15;100.00;98869.97;5085457;28;20193;-78
2023/07/29 02:03:58;;;;;;;4.27;3.97;;;;;;;18.11;100.00;98874.34;5093382;28;20208;-80
2023/07/29 02:06:25;;;;;;;5.00;4.53;;;;;;;18.10;100.00;98877.38;5072674;28;20224;-80
2023/07/29 02:08:54;;;;;;;4.90;4.50;;;;;;;18.07;100.00;98872.50;5065182;28;20191;-79
2023/07/29 02:11:27;;;;;;;4.53;4.13;;;;;;;18.05;100.00;98872.81;5074503;28;20568;-77
2023/07/29 02:13:54;;;;;;;4.80;4.30;;;;;;;18.05;100.00;98875.53;5055539;28;20196;-78
2023/07/29 02:16:22;;;;;;;4.73;4.23;;;;;;;18.06;100.00;98863.56;5052998;28;20280;-78
2023/07/29 02:18:49;;;;;;;4.30;3.90;;;;;;;18.08;100.00;98857.88;5054200;28;20292;-78
2023/07/29 02:21:18;;;;;;;4.40;4.00;;;;;;;18.07;100.00;98873.31;5035905;28;20260;-78
2023/07/29 02:23:45;;;;;;;4.13;3.83;;;;;;;18.06;100.00;98882.53;5056038;28;20216;-78
2023/07/29 02:26:12;;;;;;;4.00;3.60;;;;;;;18.10;100.00;98880.09;5052808;28;20633;-77
2023/07/29 02:28:38;;;;;;;5.87;4.03;;;;;;;18.07;100.00;98883.34;5061988;28;20200;-78
2023/07/29 02:31:21;;;;;;;4.73;4.17;;;;;;;18.03;100.00;98878.50;5064305;28;20224;-78
2023/07/29 02:33:49;;;;;;;5.07;3.60;;;;;;;18.04;100.00;98879.31;5050950;28;20223;-76
2023/07/29 02:36:16;;;;;;;4.10;3.80;;;;;;;18.02;100.00;98878.78;5045526;28;20205;-78
2023/07/29 02:38:43;;;;;;;4.17;3.70;;;;;;;18.02;100.00;98884.19;5048588;28;20210;-80
2023/07/29 02:41:12;;;;;;;4.23;3.90;;;;;;;18.06;100.00;98881.75;5047546;28;20275;-77
2023/07/29 02:43:39;;;;;;;4.30;3.90;;;;;;;18.05;100.00;98886.38;5058111;28;20210;-78
2023/07/29 02:46:05;;;;;;;5.50;3.40;;;;;;;18.07;100.00;98886.88;5049149;28;20204;-77
2023/07/29 02:48:32;;;;;;;4.73;4.03;;;;;;;18.05;100.00;98878.22;5057394;28;20555;-78
2023/07/29 02:50:59;;;;;;;4.13;3.83;;;;;;;18.02;100.00;98878.78;5052132;28;20187;-77
2023/07/29 02:53:25;;;;;;;4.20;3.80;;;;;;;18.01;100.00;98877.16;5066790;28;20200;-78
2023/07/29 02:55:52;;;;;;;4.93;3.77;;;;;;;18.03;100.00;98878.50;5073834;28;20189;-77
2023/07/29 02:58:19;;;;;;;5.70;3.53;;;;;;;18.04;100.00;98879.31;5060231;28;20204;-77
2023/07/29 03:00:48;;;;;;;4.17;3.80;;;;;;;18.07;100.00;98886.88;5053384;28;20207;-78
2023/07/29 03:03:15;;;;;;;4.20;3.80;;;;;;;18.09;100.00;98889.31;5060795;28;20210;-77
2023/07/29 03:05:43;;;;;;;4.03;3.50;;;;;;;18.09;100.00;98889.31;5064343;28;20228;-77
2023/07/29 03:08:09;;;;;;;3.57;3.27;;;;;;;18.08;100.00;98893.91;5096004;28;20197;-77
2023/07/29 03:10:36;;;;;;;4.20;3.90;;;;;;;18.09;100.00;98892.00;5106119;28;20202;-77
2023/07/29 03:13:03;;;;;;;4.27;3.70;;;;;;;18.09;100.00;98890.13;5086997;28;20198;-78
2023/07/29 03:15:30;;;;;;;4.07;3.60;;;;;;;18.06;100.00;98882.53;5092329;28;20205;-78
2023/07/29 03:17:56;;;;;;;5.23;3.90;;;;;;;18.07;100.00;98892.28;5108394;28;20264;-79
2023/07/29 03:20:23;;;;;;;4.40;3.67;;;;;;;18.08;100.00;98874.94;5107293;28;20670;-77
2023/07/29 03:22:50;;;;;;;4.87;4.00;;;;;;;18.12;100.00;98889.53;5091123;28;20236;-78
2023/07/29 03:25:16;;;;;;;4.30;4.00;;;;;;;18.12;100.00;98891.44;5082179;28;20214;-77
2023/07/29 03:27:43;;;;;;;4.00;3.60;;;;;;;18.08;100.00;98885.78;5098213;28;20187;-77
2023/07/29 03:30:10;;;;;;;4.00;3.60;;;;;;;18.10;100.00;98882.78;5077074;28;20218;-78
2023/07/29 03:32:40;;;;;;;4.43;4.03;;;;;;;18.12;100.00;98875.16;5080648;28;20621;-78
2023/07/29 03:35:07;;;;;;;5.17;4.00;;;;;;;18.12;100.00;98891.44;5083575;28;20228;-77
2023/07/29 03:37:34;;;;;;;4.33;3.93;;;;;;;18.08;100.00;98888.50;5076210;28;20195;-78
2023/07/29 03:40:01;;;;;;;4.37;3.97;;;;;;;18.10;100.00;98891.75;5098012;28;20210;-78
2023/07/29 03:42:31;;;;;;;4.00;3.60;;;;;;;18.10;100.00;98897.16;5077482;28;20214;-77
2023/07/29 03:44:57;;;;;;;4.00;3.60;;;;;;;18.16;100.00;98898.69;5092781;28;20629;-77
2023/07/29 03:47:24;;;;;;;4.30;3.90;;;;;;;18.16;100.00;98904.13;5082181;28;20196;-78
2023/07/29 03:49:52;;;;;;;5.27;3.93;;;;;;;18.20;100.00;98902.44;5079515;28;20199;-77
2023/07/29 03:52:21;;;;;;;4.60;4.13;;;;;;;18.23;100.00;98898.38;5097496;28;20218;-78
2023/07/29 03:54:47;;;;;;;4.37;3.97;;;;;;;18.27;100.00;98908.34;5084453;28;20202;-78
2023/07/29 03:57:14;;;;;;;4.40;3.87;;;;;;;18.34;100.00;98891.72;5097244;28;20199;-77
2023/07/29 03:59:41;;;;;;;4.83;3.80;;;;;;;18.40;100.00;98902.25;5094301;28;20190;-77
2023/07/29 04:02:07;;;;;;;4.50;4.10;;;;;;;18.49;100.00;98902.41;5074564;28;20222;-77
2023/07/29 04:04:34;;;;;;;4.27;3.80;;;;;;;18.54;100.00;98909.72;5073555;28;20201;-78
2023/07/29 04:07:01;;;;;;;4.13;3.83;;;;;;;18.64;100.00;98915.84;5088963;28;20246;-77
2023/07/29 04:09:28;;;;;;;4.10;3.77;;;;;;;18.73;100.00;98927.69;5094305;28;20208;-78
2023/07/29 04:11:55;;;;;;;4.33;3.93;;;;;;;18.79;100.00;98928.44;5081477;28;20285;-78
2023/07/29 04:14:21;;;;;;;4.43;4.03;;;;;;;18.88;100.00;98923.97;5084597;28;20208;-78
2023/07/29 04:16:49;;;;;;;4.60;4.20;;;;;;;18.95;100.00;98921.69;5109052;28;20280;-77
2023/07/29 04:19:16;;;;;;;4.43;4.07;;;;;;;19.02;100.00;98934.94;5086508;28;20203;-78
2023/07/29 04:21:43;;;;;;;4.67;3.80;;;;;;;19.05;100.00;98937.84;5071555;28;20192;-80
2023/07/29 04:24:09;;;;;;;3.60;3.30;;;;;;;19.08;100.00;98950.88;5077803;28;20221;-77
2023/07/29 04:26:36;;;;;;;3.97;3.67;;;;;;;19.19;100.00;98941.47;5101739;28;20716;-77
2023/07/29 04:29:03;;;;;;;4.53;3.53;;;;;;;19.33;100.00;98942.38;5100086;28;20222;-78
2023/07/29 04:31:30;;;;;;;5.30;3.60;;;;;;;19.46;100.00;98953.63;5093198;28;20213;-78
2023/07/29 04:33:56;;;;;;;3.93;3.43;;;;;;;19.56;100.00;98957.00;5099107;28;20192;-78
2023/07/29 04:36:23;;;;;;;3.40;3.10;;;;;;;19.69;100.00;98961.69;5089813;28;20199;-79
2023/07/29 04:38:50;;;;;;;3.07;2.77;;;;;;;19.72;100.00;98952.97;5104121;28;20283;-78
2023/07/29 04:41:17;;;;;;;2.80;2.60;;;;;;;19.76;100.00;98956.72;5096869;28;20189;-78
2023/07/29 04:43:44;;;;;;;3.23;2.50;;;;;;;19.78;100.00;98957.19;5079519;28;20248;-76
2023/07/29 04:46:10;;;;;;;2.50;2.25;;;;;;;19.89;100.00;98963.28;5098093;28;20191;-77
2023/07/29 04:48:37;;;;;;;2.83;2.37;;;;;;;19.96;100.00;98954.78;5083091;28;20194;-77
2023/07/29 04:51:04;;;;;;;2.40;2.00;;;;;;;20.17;100.00;98953.31;5073950;28;20671;-76
2023/07/29 04:53:30;;;;;;;1.90;1.70;;;;;;;20.39;100.00;98948.03;5097792;28;20196;-76
2023/07/29 04:55:58;;;;;;;1.80;1.70;;;;;;;20.56;100.00;98944.75;5085623;28;20202;-77
2023/07/29 04:58:25;;;;;;;2.70;2.03;;;;;;;20.89;100.00;98942.75;5086028;28;20189;-76
2023/07/29 05:00:51;;;;;;;1.70;1.60;;;;;;;20.97;100.00;98955.63;5100295;28;20199;-77
2023/07/29 05:03:18;;;;;;;1.88;1.77;;;;;;;21.01;100.00;98951.19;5100153;28;20245;-77
2023/07/29 05:05:45;;;;;;;1.80;1.70;;;;;;;21.05;100.00;98949.47;5085339;28;20622;-76
2023/07/29 05:08:12;;;;;;;2.33;1.33;;;;;;;21.13;100.00;98956.97;5062014;28;20209;-78
2023/07/29 05:10:38;;;;;;;2.13;1.80;;;;;;;21.18;100.00;98945.16;5055137;28;20223;-76
2023/07/29 05:13:05;;;;;;;1.70;1.60;;;;;;;21.32;100.00;98948.69;5071591;28;20201;-76
2023/07/29 05:15:32;;;;;;;1.80;1.70;;;;;;;21.49;100.00;98941.47;5071146;28;20189;-77
2023/07/29 05:17:58;;;;;;;2.17;1.98;;;;;;;21.68;100.00;98949.47;5071487;28;20264;-76
2023/07/29 05:20:25;;;;;;;2.28;2.08;;;;;;;21.98;100.00;98949.88;5061785;28;20243;-76
2023/07/29 05:22:52;;;;;;;2.33;2.13;;;;;;;22.17;100.00;98950.47;5061595;28;20201;-75
2023/07/29 05:25:19;;;;;;;2.40;2.20;;;;;;;22.46;100.00;98961.72;5061604;28;20700;-76
2023/07/29 05:27:45;;;;;;;2.28;2.08;;;;;;;22.66;100.00;98957.66;5071229;28;20190;-74
2023/07/29 05:30:12;;;;;;;3.25;2.30;;;;;;;22.79;100.00;98957.56;5068412;28;20207;-75
2023/07/29 05:32:39;;;;;;;3.45;2.10;;;;;;;22.85;100.00;98951.97;5069620;28;20205;-76
2023/07/29 05:35:07;;;;;;;2.45;1.88;;;;;;;23.05;100.00;98952.19;5075187;28;20290;-75
2023/07/29 05:37:34;;;;;;;2.10;1.90;;;;;;;23.15;100.00;98957.34;5073275;28;20284;-75
2023/07/29 05:40:01;;;;;;;1.95;1.85;;;;;;;23.48;100.00;98959.69;5067669;28;20204;-75
2023/07/29 05:42:28;;;;;;;2.10;1.70;;;;;;;23.61;100.00;98955.97;5073452;28;20203;-76
2023/07/29 05:44:55;;;;;;;2.53;1.80;;;;;;;23.68;100.00;98956.31;5066204;28;20217;-76
2023/07/29 05:47:21;;;;;;;2.13;1.88;;;;;;;23.75;100.00;98953.88;5074529;28;20193;-76
2023/07/29 05:49:48;;;;;;;2.13;1.90;;;;;;;23.83;100.00;98946.81;5073537;28;20560;-77
2023/07/29 05:52:15;;;;;;;2.20;2.00;;;;;;;23.81;100.00;98955.34;5066268;28;20279;-76
2023/07/29 05:54:45;;;;;;;2.40;2.20;;;;;;;23.94;100.00;98948.91;5072903;28;20677;-76
2023/07/29 05:57:12;;;;;;;3.15;2.70;;;;;;;24.08;100.00;98951.44;5054366;28;20196;-77
2023/07/29 05:59:39;;;;;;;2.95;2.58;;;;;;;24.25;100.00;98953.41;5057445;28;20211;-79
2023/07/29 06:02:06;;;;;;;2.67;2.30;;;;;;;24.37;100.00;98953.50;5072932;28;20204;-77
2023/07/29 06:04:33;;;;;;;3.15;2.30;;;;;;;24.53;100.00;98949.13;5073151;28;20241;-78
2023/07/29 06:07:00;;;;;;;2.85;2.40;;;;;;;24.62;100.00;98943.63;5073844;28;20231;-77
2023/07/29 06:09:26;;;;;;;2.60;2.40;;;;;;;24.69;100.00;98946.63;5074237;28;20195;-77
2023/07/29 06:11:53;;;;;;;2.58;2.38;;;;;;;24.71;100.00;98944.38;5072190;28;20649;-77
2023/07/29 06:14:21;;;;;;;3.40;2.70;;;;;;;24.78;100.00;98953.69;5072478;28;20254;-78
2023/07/29 06:16:48;;;;;;;3.80;2.90;;;;;;;24.85;100.00;98944.97;5055471;28;20207;-77
2023/07/29 06:19:15;;;;;;;3.15;2.88;;;;;;;24.86;100.00;98950.16;5071091;28;20752;-77
2023/07/29 06:21:42;;;;;;;3.05;2.70;;;;;;;24.75;100.00;98948.06;5054312;28;20331;-77
2023/07/29 06:24:08;;;;;;;3.03;2.83;;;;;;;24.69;100.00;98955.66;5054894;28;20203;-79
2023/07/29 06:26:36;;;;;;;5.30;3.30;;;;;;;24.71;100.00;98949.88;5070899;28;20201;-78
2023/07/29 06:29:03;;;;;;;6.68;2.80;;;;;;;24.65;100.00;98949.22;5072140;28;20189;-77
2023/07/29 06:31:32;;;;;;;5.72;2.95;;;;;;;24.60;100.00;98949.41;5073779;28;20220;-78
2023/07/29 06:33:59;;;;;;;7.45;2.97;;;;;;;24.52;100.00;98948.31;5073670;28;20618;-78
2023/07/29 06:36:26;;;;;;;10.13;3.17;;;;;;;24.55;100.00;98955.06;5069962;28;20204;-77
2023/07/29 06:38:52;;;;;;;5.60;3.00;;;;;;;24.64;100.00;98955.84;5062280;28;20210;-78
2023/07/29 06:41:19;;;;;;;3.17;2.63;;;;;;;24.72;100.00;98952.28;5069105;28;20246;-78
2023/07/29 06:43:46;;;;;;;2.72;2.38;;;;;;;24.78;100.00;98958.34;5072411;28;20196;-77
2023/07/29 06:46:13;;;;;;;2.78;2.58;;;;;;;24.77;100.00;98951.28;5071378;28;20302;-78
2023/07/29 06:48:39;;;;;;;3.22;2.95;;;;;;;24.75;100.00;98943.41;5072720;28;20189;-79
2023/07/29 06:51:06;;;;;;;4.35;2.90;;;;;;;24.70;100.00;98945.50;5068660;28;20185;-78
2023/07/29 06:53:33;;;;;;;3.08;2.78;;;;;;;24.67;100.00;98943.44;5068926;28;20216;-78
2023/07/29 06:56:00;;;;;;;3.08;2.80;;;;;;;24.66;100.00;98944.56;5069062;28;20193;-78
2023/07/29 06:58:27;;;;;;;2.95;2.75;;;;;;;24.66;100.00;98947.31;5072927;28;20188;-78
2023/07/29 07:00:54;;;;;;;3.97;2.75;;;;;;;24.65;100.00;98940.22;5072546;28;20263;-80
2023/07/29 07:03:23;;;;;;;3.83;3.00;;;;;;;24.74;100.00;98933.56;5072659;28;20200;-78
2023/07/29 07:05:50;;;;;;;5.43;3.13;;;;;;;24.87;100.00;98943.53;5072487;28;20333;-78
2023/07/29 07:08:17;;;;;;;4.25;3.00;;;;;;;24.94;100.00;98943.81;5070110;28;20571;-77
2023/07/29 07:10:44;;;;;;;5.60;3.10;;;;;;;25.01;100.00;98950.72;5072042;28;20197;-79
2023/07/29 07:13:10;;;;;;;3.70;3.17;;;;;;;25.11;100.00;98947.59;5072394;28;20609;-77
2023/07/29 07:15:37;;;;;;;4.28;2.80;;;;;;;25.23;100.00;98942.19;5071768;28;20659;-80
2023/07/29 07:18:04;;;;;;;3.53;2.58;;;;;;;25.49;100.00;98936.53;5058762;28;20195;-80
2023/07/29 07:20:31;;;;;;;2.92;2.67;;;;;;;25.84;100.00;98937.91;5050548;28;20220;-78
2023/07/29 07:22:58;;;;;;;3.10;2.30;;;;;;;26.17;100.00;98941.44;5071677;28;20246;-80
2023/07/29 07:25:24;;;;;;;2.80;2.60;;;;;;;26.42;100.00;98949.75;5050392;28;20263;-78
2023/07/29 07:27:51;;;;;;;2.63;2.28;;;;;;;26.53;100.00;98939.94;5059616;28;20624;-78
2023/07/29 07:30:18;;;;;;;2.83;2.45;;;;;;;26.88;100.00;98943.88;5072169;28;20213;-78
2023/07/29 07:32:45;;;;;;;2.60;2.40;;;;;;;27.39;100.00;98936.06;5072231;28;20201;-80
2023/07/29 07:35:12;;;;;;;3.13;2.20;;;;;;;27.82;100.00;98938.13;5072310;28;20217;-81
2023/07/29 07:37:38;;;;;;;2.40;2.25;;;;;;;28.21;100.00;98939.25;5067704;28;20540;-80
2023/07/29 07:40:06;;;;;;;2.22;2.13;;;;;;;28.59;100.00;98927.66;5071793;28;20189;-80
2023/07/29 07:42:32;;;;;;;2.20;2.10;;;;;;;28.97;100.00;98925.09;5070486;28;20197;-79
2023/07/29 07:44:59;;;;;;;3.08;2.22;;;;;;;29.31;100.00;98926.25;5071867;28;20212;-80
2023/07/29 07:47:26;;;;;;;2.40;2.20;;;;;;;29.63;100.00;98925.00;5064062;28;20698;-80
2023/07/29 07:49:52;;;;;;;2.25;2.15;;;;;;;29.71;100.00;98918.47;5066984;28;20190;-79
2023/07/29 07:52:19;;;;;;;2.58;2.38;;;;;;;29.82;98.93;98917.88;5061084;28;20678;-79
2023/07/29 07:54:46;;;;;;;2.70;2.50;;;;;;;29.99;98.01;98918.28;5071716;28;20590;-80
2023/07/29 07:57:12;;;;;;;2.67;2.47;;;;;;;30.25;98.85;98914.78;5055503;28;20656;-80
2023/07/29 07:59:39;;;;;;;2.45;2.25;;;;;;;30.41;96.70;98917.47;5071402;28;20590;-79
2023/07/29 08:02:06;;;;;;;2.65;2.33;;;;;;;30.76;94.76;98915.31;5071456;28;20197;-81
2023/07/29 08:04:32;;;;;;;2.63;2.42;;;;;;;31.11;91.06;98917.88;5068563;28;20185;-80
2023/07/29 08:06:59;;;;;;;2.63;2.42;;;;;;;31.37;88.46;98928.91;5070558;28;20239;-80
2023/07/29 08:09:26;;;;;;;2.42;2.30;;;;;;;31.38;85.87;98924.97;5071055;28;20193;-80
2023/07/29 08:11:52;;;;;;;2.50;2.28;;;;;;;31.29;83.38;98926.41;5071184;28;20209;-79
2023/07/29 08:14:19;;;;;;;2.58;2.40;;;;;;;31.22;83.15;98916.03;5071049;28;20727;-80
2023/07/29 08:16:46;;;;;;;3.05;2.60;;;;;;;31.02;84.85;98917.34;5071147;28;20201;-79
2023/07/29 08:19:12;;;;;;;2.85;2.65;;;;;;;30.72;86.08;98922.75;5071510;28;20204;-81
2023/07/29 08:21:39;;;;;;;2.80;2.60;;;;;;;30.52;86.22;98918.44;5071406;28;20204;-81
2023/07/29 08:24:07;;;;;;;2.83;2.63;;;;;;;30.61;83.65;98913.47;5071290;28;20666;-79
2023/07/29 08:26:34;;;;;;;3.05;2.80;;;;;;;30.62;83.78;98912.31;5071544;28;20213;-79
2023/07/29 08:29:01;;;;;;;3.08;2.78;;;;;;;30.59;82.84;98913.88;5071217;28;20196;-79
2023/07/29 08:31:28;;;;;;;3.38;2.85;;;;;;;30.76;82.63;98909.78;5071140;28;20216;-80
2023/07/29 08:33:54;;;;;;;2.75;2.55;;;;;;;30.73;81.83;98910.53;5071066;28;20192;-79
2023/07/29 08:36:21;;;;;;;2.72;2.53;;;;;;;30.78;81.55;98913.00;5071541;28;20691;-79
2023/07/29 08:38:48;;;;;;;3.10;2.80;;;;;;;30.82;79.81;98911.06;5071250;28;20648;-79
2023/07/29 08:41:19;;;;;;;3.33;2.80;;;;;;;30.91;77.60;98903.31;5071118;28;20258;-78
2023/07/29 08:44:12;;;;;;;3.10;2.60;;;;;;;30.69;75.53;98904.16;5064747;28;20189;-79
2023/07/29 08:46:40;;;;;;;2.85;2.65;;;;;;;30.77;75.04;98900.31;5012484;28;20250;-80
2023/07/29 08:49:07;;;;;;;2.88;2.67;;;;;;;30.50;76.07;98906.97;5064521;28;20651;-79
2023/07/29 08:51:34;;;;;;;2.72;2.53;;;;;;;30.26;73.55;98904.53;5070865;28;20223;-79
2023/07/29 08:54:01;;;;;;;2.80;2.60;;;;;;;29.99;73.06;98898.13;5069078;28;20213;-79
2023/07/29 08:56:30;;;;;;;2.60;2.40;;;;;;;29.65;72.71;98897.03;5070587;28;20197;-79
2023/07/29 08:58:57;;;;;;;2.72;2.50;;;;;;;29.48;72.39;98891.94;5069464;28;20664;-79
2023/07/29 09:01:24;;;;;;;2.80;2.60;;;;;;;29.29;73.34;98881.66;5056653;28;20200;-80
2023/07/29 09:03:51;;;;;;;7.38;3.08;;;;;;;29.38;75.05;98879.53;5070349;28;20784;-79
2023/07/29 09:06:18;;;;;;;3.60;2.40;;;;;;;29.30;74.20;98883.31;5082339;28;20293;-80
2023/07/29 09:08:45;;;;;;;2.92;2.72;;;;;;;29.45;73.60;98884.38;5085069;28;20202;-80
2023/07/29 09:11:14;;;;;;;3.13;2.83;;;;;;;29.61;71.92;98882.38;5094090;28;20650;-80
2023/07/29 09:13:41;;;;;;;2.80;2.60;;;;;;;29.47;69.29;98874.59;5086172;28;20662;-80
2023/07/29 09:16:08;;;;;;;3.50;2.70;;;;;;;29.67;68.76;98878.97;5108029;28;20252;-80
2023/07/29 09:18:35;;;;;;;3.20;2.90;;;;;;;29.69;69.99;98878.56;5110436;28;20196;-80
2023/07/29 09:21:02;;;;;;;3.60;2.90;;;;;;;29.77;69.87;98878.34;5085323;28;20196;-80
2023/07/29 09:23:28;;;;;;;3.22;2.90;;;;;;;29.81;71.52;98875.69;5102328;28;20258;-80
2023/07/29 09:26:02;;;;;;;3.33;3.10;;;;;;;29.85;71.80;98867.47;5090572;28;20294;-79
2023/07/29 09:28:33;;;;;;;3.47;2.80;;;;;;;30.07;70.70;98863.97;5074316;28;20281;-78
2023/07/29 09:31:00;;;;;;;3.08;2.85;;;;;;;30.15;70.56;98860.94;5078279;28;20213;-79
2023/07/29 09:33:28;;;;;;;3.42;3.13;;;;;;;30.30;71.00;98866.72;5087903;28;20192;-79
2023/07/29 09:35:54;;;;;;;2.83;2.58;;;;;;;30.37;69.56;98861.34;5065779;28;20287;-79
2023/07/29 09:38:26;;;;;;;2.80;2.60;;;;;;;30.47;68.31;98860.75;5088496;28;20248;-79
2023/07/29 09:40:58;;;;;;;2.75;2.50;;;;;;;30.56;66.30;98858.53;5100337;28;20208;-80
2023/07/29 09:43:32;;;;;;;2.50;2.30;;;;;;;30.81;67.13;98856.94;5100143;28;20199;-79
2023/07/29 09:46:01;;;;;;;2.63;2.42;;;;;;;30.88;68.33;98851.53;5084934;28;20217;-80
2023/07/29 09:48:30;;;;;;;2.95;2.75;;;;;;;30.84;67.65;98852.63;5082986;28;20187;-79
2023/07/29 09:50:57;;;;;;;3.03;2.83;;;;;;;30.81;67.21;98848.63;5103579;28;20279;-79
2023/07/29 09:53:24;;;;;;;2.72;2.50;;;;;;;30.74;66.20;98844.97;5111890;28;20537;-79
2023/07/29 09:55:53;;;;;;;3.88;2.70;;;;;;;30.94;70.16;98841.72;5098147;28;20200;-80
2023/07/29 09:58:26;;;;;;;3.88;2.75;;;;;;;30.98;65.67;98845.31;5107769;28;20244;-81
2023/07/29 10:00:53;;;;;;;2.75;2.55;;;;;;;31.14;64.32;98833.31;5091640;28;20299;-81
2023/07/29 10:03:23;;;;;;;2.80;2.60;;;;;;;31.21;66.11;98828.69;5103859;28;20199;-78
2023/07/29 10:05:50;;;;;;;3.25;2.95;;;;;;;31.16;69.28;98833.75;5102997;28;20259;-79
2023/07/29 10:08:18;;;;;;;3.30;2.80;;;;;;;31.18;70.59;98829.44;5104216;28;20549;-80
2023/07/29 10:10:45;;;;;;;4.63;2.78;;;;;;;31.14;69.47;98828.59;5104757;28;20185;-81
2023/07/29 10:13:12;;;;;;;3.38;2.95;;;;;;;30.94;70.88;98833.41;5100594;28;20191;-79
2023/07/29 10:15:40;;;;;;;2.58;2.45;;;;;;;30.97;70.64;98834.66;5084584;28;20200;-80
2023/07/29 10:18:06;;;;;;;3.28;2.72;;;;;;;30.96;70.06;98833.06;5098151;28;20188;-79
2023/07/29 10:20:34;;;;;;;3.13;2.83;;;;;;;31.16;69.89;98830.97;5092261;28;20197;-80
2023/07/29 10:23:01;;;;;;;4.57;2.70;;;;;;;31.24;69.80;98821.59;5084305;28;20601;-80
2023/07/29 10:25:37;;;;;;;3.03;2.50;;;;;;;31.24;66.57;98821.59;5094006;28;20213;-79
2023/07/29 10:28:05;;;;;;;2.90;2.60;;;;;;;31.29;66.55;98826.81;5096621;28;20187;-79
2023/07/29 10:30:33;;;;;;;3.63;2.60;;;;;;;31.25;65.37;98823.19;5107434;28;20208;-80
2023/07/29 10:33:02;;;;;;;3.65;2.40;;;;;;;31.22;63.69;98829.47;5093788;28;20573;-80
2023/07/29 10:35:30;;;;;;;2.65;2.45;;;;;;;31.38;63.61;98832.84;5101110;28;20200;-80
2023/07/29 10:37:56;;;;;;;2.33;2.20;;;;;;;31.46;63.47;98842.81;5112750;28;20192;-79
2023/07/29 10:40:23;;;;;;;2.35;2.25;;;;;;;31.58;62.24;98830.75;5094956;28;20205;-80
2023/07/29 10:43:11;;;;;;;2.63;2.30;;;;;;;31.71;62.84;98830.09;5102258;28;21002;-80
2023/07/29 10:45:39;;;;;;;2.15;2.00;;;;;;;31.58;60.96;98822.44;5106619;28;20216;-80
2023/07/29 10:48:10;;;;;;;2.75;2.55;;;;;;;31.67;61.50;98818.19;5083346;28;20571;-80
2023/07/29 10:50:37;;;;;;;2.67;2.47;;;;;;;31.76;61.17;98806.81;5095688;28;20275;-80
2023/07/29 10:53:04;;;;;;;2.58;2.38;;;;;;;31.52;60.58;98805.34;5106493;28;20200;-80
2023/07/29 10:55:36;;;;;;;2.58;2.38;;;;;;;31.47;60.42;98803.69;5102727;28;20200;-78
2023/07/29 10:58:13;;;;;;;2.30;2.10;;;;;;;31.42;60.05;98804.03;5091095;28;20215;-80
2023/07/29 11:00:44;;;;;;;2.40;2.20;;;;;;;31.14;60.52;98800.13;5086191;28;20274;-80
2023/07/29 11:03:14;;;;;;;2.13;1.92;;;;;;;31.08;61.54;98799.66;5099125;28;20196;-80
2023/07/29 11:05:47;;;;;;;2.53;2.00;;;;;;;31.73;61.37;98790.97;5083253;28;20258;-80
2023/07/29 11:08:27;;;;;;;2.45;2.10;;;;;;;32.13;62.34;98782.66;5072480;28;20694;-82
2023/07/29 11:10:59;;;;;;;5.53;2.40;;;;;;;32.62;61.80;98778.66;5071657;28;20197;-79
2023/07/29 11:13:28;;;;;;;4.70;2.33;;;;;;;33.19;60.30;98772.28;5070427;28;20197;-80
2023/07/29 11:15:56;;;;;;;2.42;2.22;;;;;;;33.83;59.75;98766.16;5063101;28;20193;-79
2023/07/29 11:18:26;;;;;;;2.55;2.30;;;;;;;33.82;58.40;98762.56;5062556;28;20250;-80
2023/07/29 11:20:54;;;;;;;2.40;2.20;;;;;;;33.84;58.51;98771.28;5072043;28;20203;-80
2023/07/29 11:23:30;;;;;;;2.50;2.30;;;;;;;33.66;59.00;98769.66;5055576;28;20278;-79
2023/07/29 11:25:58;;;;;;;2.50;2.30;;;;;;;33.37;58.13;98764.00;5072124;28;21025;-79
2023/07/29 11:28:26;;;;;;;2.22;2.10;;;;;;;33.28;57.67;98763.59;5072363;28;20189;-80